sensor_id;sensor_type;location;lat;lon;timestamp;pressure;altitude;pressure_sealevel;temperature;humidity
3440;BME280;1733;42.286;22.690;2022-08-01T05:49:45;95591.28;;;20.14;94.14
3440;BME280;1733;42.286;22.690;2022-08-01T05:52:12;95594.63;;;20.33;91.34
3440;BME280;1733;42.286;22.690;2022-08-01T05:54:39;95598.06;;;20.53;90.15
3440;BME280;1733;42.286;22.690;2022-08-01T12:40:47;95345.91;;;32.00;35.17
3440;BME280;1733;42.286;22.690;2022-08-01T12:43:17;95317.31;;;32.31;36.62
3440;BME280;1733;42.286;22.690;2022-08-01T12:45:45;95307.03;;;31.96;36.25
3440;BME280;1733;42.286;22.690;2022-08-01T12:48:14;95331.88;;;31.43;36.21
3440;BME280;1733;42.286;22.690;2022-08-01T12:50:43;95335.00;;;31.45;35.17
3440;BME280;1733;42.286;22.690;2022-08-01T12:53:10;95332.66;;;31.47;35.94
3440;BME280;1733;42.286;22.690;2022-08-01T12:55:46;95344.16;;;31.30;36.24
3440;BME280;1733;42.286;22.690;2022-08-01T12:58:14;95311.84;;;31.21;35.55
3440;BME280;1733;42.286;22.690;2022-08-01T13:00:44;95335.53;;;31.20;36.68
3440;BME280;1733;42.286;22.690;2022-08-01T13:03:15;95309.72;;;31.00;36.40
3440;BME280;1733;42.286;22.690;2022-08-01T13:05:44;95334.16;;;31.00;37.11
3440;BME280;1733;42.286;22.690;2022-08-01T13:08:12;95320.31;;;31.12;37.96
3440;BME280;1733;42.286;22.690;2022-08-01T13:10:40;95321.06;;;31.13;38.18
3440;BME280;1733;42.286;22.690;2022-08-01T13:13:10;95333.63;;;30.54;38.30
3440;BME280;1733;42.286;22.690;2022-08-01T13:15:38;95326.47;;;30.38;39.05
3440;BME280;1733;42.286;22.690;2022-08-01T13:18:23;95300.38;;;31.38;36.83
3440;BME280;1733;42.286;22.690;2022-08-01T13:21:07;95304.06;;;32.22;36.57
3440;BME280;1733;42.286;22.690;2022-08-01T13:23:34;95313.91;;;32.45;36.52
3440;BME280;1733;42.286;22.690;2022-08-01T13:26:01;95308.22;;;32.02;36.86
3440;BME280;1733;42.286;22.690;2022-08-01T13:28:31;95320.00;;;31.65;38.53
3440;BME280;1733;42.286;22.690;2022-08-01T13:31:00;95328.38;;;30.68;38.96
3440;BME280;1733;42.286;22.690;2022-08-01T13:33:40;95315.72;;;30.49;39.25
3440;BME280;1733;42.286;22.690;2022-08-01T13:36:08;95324.13;;;30.10;40.12
3440;BME280;1733;42.286;22.690;2022-08-01T13:38:35;95321.06;;;30.72;40.55
3440;BME280;1733;42.286;22.690;2022-08-01T13:41:25;95313.03;;;32.26;37.72
3440;BME280;1733;42.286;22.690;2022-08-01T13:43:54;95351.13;;;31.75;38.14
3440;BME280;1733;42.286;22.690;2022-08-01T13:46:30;95321.84;;;31.13;38.17
3440;BME280;1733;42.286;22.690;2022-08-01T13:48:57;95336.88;;;31.41;38.00
3440;BME280;1733;42.286;22.690;2022-08-01T13:51:24;95329.72;;;30.51;39.12
3440;BME280;1733;42.286;22.690;2022-08-01T13:53:51;95313.84;;;29.97;39.77
3440;BME280;1733;42.286;22.690;2022-08-01T13:56:18;95326.34;;;29.75;41.42
3440;BME280;1733;42.286;22.690;2022-08-01T13:58:45;95299.84;;;29.41;41.20
3440;BME280;1733;42.286;22.690;2022-08-01T14:01:14;95318.28;;;29.32;40.96
3440;BME280;1733;42.286;22.690;2022-08-01T14:03:41;95321.72;;;29.79;41.49
3440;BME280;1733;42.286;22.690;2022-08-01T14:06:08;95329.41;;;29.73;41.43
3440;BME280;1733;42.286;22.690;2022-08-01T14:08:35;95318.06;;;30.20;40.01
3440;BME280;1733;42.286;22.690;2022-08-01T14:11:03;95327.47;;;30.57;39.56
3440;BME280;1733;42.286;22.690;2022-08-01T14:13:32;95322.22;;;30.11;41.01
3440;BME280;1733;42.286;22.690;2022-08-01T14:15:59;95325.44;;;30.50;39.59
3440;BME280;1733;42.286;22.690;2022-08-01T14:18:34;95314.56;;;31.65;38.96
3440;BME280;1733;42.286;22.690;2022-08-01T14:21:38;95342.56;;;33.36;35.30
3440;BME280;1733;42.286;22.690;2022-08-01T14:31:53;95321.66;;;34.82;33.38
3440;BME280;1733;42.286;22.690;2022-08-01T14:34:21;95329.25;;;34.31;33.36
